sensor_id;sensor_type;location;lat;lon;timestamp;pressure;altitude;pressure_sealevel;temperature;humidity
75998;BME280;64685;48.762;44.822;2023-07-20T00:03:14;100504.97;;;20.51;52.92
75998;BME280;64685;48.762;44.822;2023-07-20T00:08:21;100513.75;;;20.39;53.28
75998;BME280;64685;48.762;44.822;2023-07-20T00:13:24;100524.25;;;20.28;53.57
75998;BME280;64685;48.762;44.822;2023-07-20T00:18:27;100522.88;;;20.15;53.53
75998;BME280;64685;48.762;44.822;2023-07-20T00:23:29;100523.25;;;20.10;53.79
75998;BME280;64685;48.762;44.822;2023-07-20T00:28:33;100519.56;;;20.06;53.72
75998;BME280;64685;48.762;44.822;2023-07-20T00:33:36;100514.59;;;19.96;53.65
75998;BME280;64685;48.762;44.822;2023-07-20T00:38:39;100512.94;;;19.91;53.66
75998;BME280;64685;48.762;44.822;2023-07-20T00:43:41;100529.03;;;19.80;53.77
75998;BME280;64685;48.762;44.822;2023-07-20T00:48:44;100531.34;;;19.71;53.98
75998;BME280;64685;48.762;44.822;2023-07-20T00:53:46;100534.91;;;19.65;54.04
75998;BME280;64685;48.762;44.822;2023-07-20T00:58:50;100545.78;;;19.59;54.24
75998;BME280;64685;48.762;44.822;2023-07-20T01:03:53;100539.22;;;19.52;54.19
75998;BME280;64685;48.762;44.822;2023-07-20T01:09:30;100548.94;;;19.51;54.19
75998;BME280;64685;48.762;44.822;2023-07-20T01:14:34;100553.31;;;19.45;54.21
75998;BME280;64685;48.762;44.822;2023-07-20T01:19:37;100568.59;;;19.40;54.34
75998;BME280;64685;48.762;44.822;2023-07-20T01:30:22;100564.19;;;19.43;54.09
75998;BME280;64685;48.762;44.822;2023-07-20T01:35:29;100558.44;;;19.36;54.30
75998;BME280;64685;48.762;44.822;2023-07-20T01:40:32;100568.59;;;19.40;54.38
75998;BME280;64685;48.762;44.822;2023-07-20T01:45:35;100564.19;;;19.43;54.43
75998;BME280;64685;48.762;44.822;2023-07-20T01:50:38;100571.97;;;19.49;53.96
75998;BME280;64685;48.762;44.822;2023-07-20T01:55:40;100588.25;;;19.56;54.36
75998;BME280;64685;48.762;44.822;2023-07-20T02:00:43;100587.31;;;20.14;53.24
75998;BME280;64685;48.762;44.822;2023-07-20T02:05:46;100590.34;;;20.82;51.51
75998;BME280;64685;48.762;44.822;2023-07-20T02:10:49;100595.53;;;21.34;50.32
75998;BME280;64685;48.762;44.822;2023-07-20T02:15:52;100607.94;;;21.77;49.30
75998;BME280;64685;48.762;44.822;2023-07-20T02:20:56;100610.91;;;22.26;48.20
75998;BME280;64685;48.762;44.822;2023-07-20T02:25:59;100615.44;;;22.58;47.45
75998;BME280;64685;48.762;44.822;2023-07-20T02:31:01;100612.97;;;23.06;46.99
75998;BME280;64685;48.762;44.822;2023-07-20T02:36:04;100617.41;;;23.49;45.82
75998;BME280;64685;48.762;44.822;2023-07-20T02:41:07;100622.84;;;24.08;45.49
75998;BME280;64685;48.762;44.822;2023-07-20T02:46:09;100631.47;;;24.63;44.15
75998;BME280;64685;48.762;44.822;2023-07-20T02:51:12;100627.34;;;25.15;42.94
75998;BME280;64685;48.762;44.822;2023-07-20T02:56:15;100644.28;;;25.39;42.10
75998;BME280;64685;48.762;44.822;2023-07-20T03:01:18;100651.09;;;25.86;41.99
75998;BME280;64685;48.762;44.822;2023-07-20T03:06:20;100656.81;;;25.05;42.91
75998;BME280;64685;48.762;44.822;2023-07-20T03:11:24;100658.63;;;26.06;41.10
75998;BME280;64685;48.762;44.822;2023-07-20T03:16:26;100659.66;;;26.76;39.73
75998;BME280;64685;48.762;44.822;2023-07-20T03:21:29;100675.75;;;27.62;38.72
75998;BME280;64685;48.762;44.822;2023-07-20T03:26:34;100689.59;;;28.09;37.62
75998;BME280;64685;48.762;44.822;2023-07-20T03:31:37;100684.47;;;28.36;37.11
75998;BME280;64685;48.762;44.822;2023-07-20T03:36:39;100681.94;;;29.09;36.51
75998;BME280;64685;48.762;44.822;2023-07-20T03:41:42;100681.44;;;29.75;35.79
75998;BME280;64685;48.762;44.822;2023-07-20T03:46:45;100690.94;;;30.16;34.64
75998;BME280;64685;48.762;44.822;2023-07-20T03:51:48;100688.53;;;30.68;33.86
75998;BME280;64685;48.762;44.822;2023-07-20T03:56:51;100678.00;;;31.12;32.97
75998;BME280;64685;48.762;44.822;2023-07-20T04:01:53;100684.66;;;31.46;32.35
75998;BME280;64685;48.762;44.822;2023-07-20T04:06:56;100682.16;;;31.70;32.71
75998;BME280;64685;48.762;44.822;2023-07-20T04:11:59;100685.69;;;31.86;31.97
75998;BME280;64685;48.762;44.822;2023-07-20T04:17:02;100685.06;;;32.04;30.54
75998;BME280;64685;48.762;44.822;2023-07-20T04:22:05;100686.53;;;32.82;30.29
75998;BME280;64685;48.762;44.822;2023-07-20T04:27:08;100698.19;;;33.57;29.34
75998;BME280;64685;48.762;44.822;2023-07-20T04:32:10;100699.06;;;34.03;28.51
75998;BME280;64685;48.762;44.822;2023-07-20T04:37:13;100690.03;;;34.37;27.71
75998;BME280;64685;48.762;44.822;2023-07-20T04:42:15;100695.31;;;34.65;27.27
75998;BME280;64685;48.762;44.822;2023-07-20T04:47:18;100704.63;;;34.78;27.13
75998;BME280;64685;48.762;44.822;2023-07-20T04:52:23;100708.59;;;34.90;27.21
75998;BME280;64685;48.762;44.822;2023-07-20T04:57:43;100715.03;;;35.03;26.27
75998;BME280;64685;48.762;44.822;2023-07-20T05:02:47;100716.13;;;35.47;25.67
75998;BME280;64685;48.762;44.822;2023-07-20T05:07:51;100715.22;;;36.02;25.72
75998;BME280;64685;48.762;44.822;2023-07-20T05:12:54;100728.66;;;36.00;25.19
75998;BME280;64685;48.762;44.822;2023-07-20T05:17:56;100727.94;;;35.90;25.85
75998;BME280;64685;48.762;44.822;2023-07-20T05:22:59;100721.63;;;35.92;25.82
75998;BME280;64685;48.762;44.822;2023-07-20T05:28:03;100719.69;;;35.42;26.11
75998;BME280;64685;48.762;44.822;2023-07-20T05:33:06;100719.19;;;35.67;25.14
75998;BME280;64685;48.762;44.822;2023-07-20T05:38:08;100724.25;;;36.04;24.12
75998;BME280;64685;48.762;44.822;2023-07-20T05:43:11;100730.69;;;36.32;23.95
75998;BME280;64685;48.762;44.822;2023-07-20T05:48:13;100728.03;;;36.72;24.00
75998;BME280;64685;48.762;44.822;2023-07-20T05:53:16;100728.19;;;37.26;23.49
75998;BME280;64685;48.762;44.822;2023-07-20T05:58:19;100741.56;;;37.53;23.20
75998;BME280;64685;48.762;44.822;2023-07-20T06:03:22;100734.16;;;38.52;22.54
75998;BME280;64685;48.762;44.822;2023-07-20T06:08:25;100739.91;;;38.92;21.00
75998;BME280;64685;48.762;44.822;2023-07-20T06:13:27;100732.25;;;39.00;21.03
75998;BME280;64685;48.762;44.822;2023-07-20T06:18:30;100744.94;;;39.59;21.03
75998;BME280;64685;48.762;44.822;2023-07-20T06:23:33;100742.44;;;39.77;20.44
75998;BME280;64685;48.762;44.822;2023-07-20T06:28:35;100727.72;;;40.19;19.78
75998;BME280;64685;48.762;44.822;2023-07-20T06:33:38;100731.75;;;40.22;19.48
75998;BME280;64685;48.762;44.822;2023-07-20T06:38:41;100744.47;;;40.13;19.44
75998;BME280;64685;48.762;44.822;2023-07-20T06:44:03;100744.16;;;40.06;20.06
75998;BME280;64685;48.762;44.822;2023-07-20T06:49:07;100740.13;;;39.56;20.22
75998;BME280;64685;48.762;44.822;2023-07-20T06:54:15;100743.75;;;39.09;20.21
75998;BME280;64685;48.762;44.822;2023-07-20T06:59:18;100746.34;;;39.01;20.16
75998;BME280;64685;48.762;44.822;2023-07-20T07:04:20;100749.50;;;39.65;18.94
75998;BME280;64685;48.762;44.822;2023-07-20T07:09:23;100734.78;;;39.49;18.73
75998;BME280;64685;48.762;44.822;2023-07-20T07:14:26;100735.94;;;39.68;19.58
75998;BME280;64685;48.762;44.822;2023-07-20T07:19:29;100744.88;;;39.17;18.44
75998;BME280;64685;48.762;44.822;2023-07-20T07:24:32;100724.47;;;38.66;18.79
75998;BME280;64685;48.762;44.822;2023-07-20T07:29:38;100743.22;;;39.36;18.42
75998;BME280;64685;48.762;44.822;2023-07-20T07:34:40;100740.19;;;39.67;18.82
75998;BME280;64685;48.762;44.822;2023-07-20T07:39:43;100744.53;;;39.09;18.49
75998;BME280;64685;48.762;44.822;2023-07-20T07:44:45;100741.75;;;40.04;18.87
75998;BME280;64685;48.762;44.822;2023-07-20T07:49:48;100735.03;;;39.51;18.78
75998;BME280;64685;48.762;44.822;2023-07-20T07:54:50;100747.25;;;39.13;18.49
75998;BME280;64685;48.762;44.822;2023-07-20T07:59:53;100729.09;;;39.71;18.16
75998;BME280;64685;48.762;44.822;2023-07-20T08:04:55;100728.47;;;38.43;19.42
75998;BME280;64685;48.762;44.822;2023-07-20T08:09:58;100732.78;;;37.33;19.85
75998;BME280;64685;48.762;44.822;2023-07-20T08:15:05;100725.81;;;39.58;18.24
75998;BME280;64685;48.762;44.822;2023-07-20T08:20:08;100713.78;;;39.14;18.25
75998;BME280;64685;48.762;44.822;2023-07-20T08:25:14;100715.66;;;38.15;19.04
75998;BME280;64685;48.762;44.822;2023-07-20T08:30:17;100713.13;;;39.30;18.77
75998;BME280;64685;48.762;44.822;2023-07-20T08:35:19;100718.31;;;39.20;17.83
75998;BME280;64685;48.762;44.822;2023-07-20T08:40:24;100712.97;;;39.92;17.94
75998;BME280;64685;48.762;44.822;2023-07-20T08:45:30;100706.47;;;40.30;17.63
75998;BME280;64685;48.762;44.822;2023-07-20T08:50:35;100707.34;;;38.53;18.90
75998;BME280;64685;48.762;44.822;2023-07-20T08:55:38;100705.00;;;38.57;19.12
75998;BME280;64685;48.762;44.822;2023-07-20T09:00:42;100722.25;;;39.12;17.96
75998;BME280;64685;48.762;44.822;2023-07-20T09:05:48;100713.41;;;40.38;17.04
75998;BME280;64685;48.762;44.822;2023-07-20T09:10:50;100707.53;;;40.27;16.59
75998;BME280;64685;48.762;44.822;2023-07-20T09:15:53;100708.41;;;40.60;17.30
75998;BME280;64685;48.762;44.822;2023-07-20T09:21:06;100702.84;;;41.39;16.46
75998;BME280;64685;48.762;44.822;2023-07-20T09:26:12;100698.88;;;40.82;16.83
75998;BME280;64685;48.762;44.822;2023-07-20T09:31:20;100700.97;;;40.65;17.04
75998;BME280;64685;48.762;44.822;2023-07-20T09:36:23;100698.06;;;41.14;17.05
75998;BME280;64685;48.762;44.822;2023-07-20T09:41:46;100691.66;;;40.72;16.90
75998;BME280;64685;48.762;44.822;2023-07-20T09:46:49;100701.19;;;40.50;16.94
75998;BME280;64685;48.762;44.822;2023-07-20T09:51:57;100715.84;;;39.86;16.76
75998;BME280;64685;48.762;44.822;2023-07-20T09:57:02;100694.16;;;39.62;17.51
75998;BME280;64685;48.762;44.822;2023-07-20T10:02:11;100691.41;;;39.42;17.86
75998;BME280;64685;48.762;44.822;2023-07-20T10:07:16;100688.59;;;39.64;17.79
75998;BME280;64685;48.762;44.822;2023-07-20T10:12:23;100695.88;;;36.66;20.03
75998;BME280;64685;48.762;44.822;2023-07-20T10:17:27;100688.31;;;37.18;20.00
75998;BME280;64685;48.762;44.822;2023-07-20T10:22:35;100693.47;;;36.65;20.17
75998;BME280;64685;48.762;44.822;2023-07-20T10:27:43;100695.00;;;35.61;21.30
75998;BME280;64685;48.762;44.822;2023-07-20T10:32:47;100688.94;;;36.11;20.91
75998;BME280;64685;48.762;44.822;2023-07-20T10:37:55;100677.25;;;35.35;22.19
75998;BME280;64685;48.762;44.822;2023-07-20T10:43:06;100687.16;;;33.83;22.07
75998;BME280;64685;48.762;44.822;2023-07-20T10:48:18;100686.00;;;33.53;23.34
75998;BME280;64685;48.762;44.822;2023-07-20T10:53:21;100683.28;;;34.31;22.73
75998;BME280;64685;48.762;44.822;2023-07-20T10:58:24;100688.38;;;33.55;23.15
75998;BME280;64685;48.762;44.822;2023-07-20T11:03:33;100675.06;;;33.84;23.38
75998;BME280;64685;48.762;44.822;2023-07-20T11:08:42;100680.88;;;33.27;23.35
75998;BME280;64685;48.762;44.822;2023-07-20T11:14:07;100687.63;;;32.54;23.87
75998;BME280;64685;48.762;44.822;2023-07-20T11:19:28;100681.16;;;32.41;24.19
75998;BME280;64685;48.762;44.822;2023-07-20T11:24:33;100695.25;;;32.91;24.06
75998;BME280;64685;48.762;44.822;2023-07-20T11:29:37;100694.09;;;32.58;24.97
75998;BME280;64685;48.762;44.822;2023-07-20T11:34:39;100681.47;;;31.66;25.71
75998;BME280;64685;48.762;44.822;2023-07-20T11:39:42;100687.63;;;31.89;24.94
75998;BME280;64685;48.762;44.822;2023-07-20T11:44:44;100676.81;;;31.81;24.63
75998;BME280;64685;48.762;44.822;2023-07-20T11:49:47;100677.50;;;31.85;24.76
75998;BME280;64685;48.762;44.822;2023-07-20T11:54:55;100676.03;;;31.68;25.07
75998;BME280;64685;48.762;44.822;2023-07-20T12:00:01;100688.59;;;31.86;24.63
75998;BME280;64685;48.762;44.822;2023-07-20T12:05:11;100683.28;;;31.85;24.62
75998;BME280;64685;48.762;44.822;2023-07-20T12:10:14;100695.19;;;31.87;25.91
75998;BME280;64685;48.762;44.822;2023-07-20T12:25:36;100685.97;;;31.20;24.50
75998;BME280;64685;48.762;44.822;2023-07-20T12:30:40;100684.47;;;30.91;24.37
75998;BME280;64685;48.762;44.822;2023-07-20T12:35:43;100678.38;;;30.76;24.86
75998;BME280;64685;48.762;44.822;2023-07-20T12:40:46;100666.34;;;30.65;25.06
75998;BME280;64685;48.762;44.822;2023-07-20T12:45:48;100683.38;;;30.47;25.72
75998;BME280;64685;48.762;44.822;2023-07-20T12:50:51;100682.53;;;30.22;25.73
75998;BME280;64685;48.762;44.822;2023-07-20T12:55:54;100675.97;;;29.93;25.85
75998;BME280;64685;48.762;44.822;2023-07-20T13:00:56;100684.53;;;29.52;26.36
75998;BME280;64685;48.762;44.822;2023-07-20T13:06:02;100686.06;;;29.40;27.24
75998;BME280;64685;48.762;44.822;2023-07-20T13:11:08;100678.50;;;29.30;27.79
75998;BME280;64685;48.762;44.822;2023-07-20T13:16:10;100695.50;;;29.09;28.27
75998;BME280;64685;48.762;44.822;2023-07-20T13:21:13;100681.31;;;29.18;28.41
75998;BME280;64685;48.762;44.822;2023-07-20T13:26:16;100675.16;;;29.64;27.82
75998;BME280;64685;48.762;44.822;2023-07-20T13:31:18;100675.50;;;29.66;28.05
75998;BME280;64685;48.762;44.822;2023-07-20T13:36:22;100689.22;;;29.46;28.28
75998;BME280;64685;48.762;44.822;2023-07-20T13:41:25;100683.47;;;29.30;28.74
75998;BME280;64685;48.762;44.822;2023-07-20T13:46:28;100678.97;;;29.29;28.79
75998;BME280;64685;48.762;44.822;2023-07-20T13:51:34;100686.06;;;29.24;28.64
75998;BME280;64685;48.762;44.822;2023-07-20T13:56:37;100679.75;;;29.29;29.55
75998;BME280;64685;48.762;44.822;2023-07-20T14:01:39;100684.53;;;29.52;29.53
75998;BME280;64685;48.762;44.822;2023-07-20T14:06:43;100682.53;;;29.65;30.17
75998;BME280;64685;48.762;44.822;2023-07-20T14:11:46;100672.31;;;29.16;29.48
75998;BME280;64685;48.762;44.822;2023-07-20T14:16:52;100674.44;;;28.80;29.41
75998;BME280;64685;48.762;44.822;2023-07-20T14:21:55;100674.22;;;28.55;29.72
75998;BME280;64685;48.762;44.822;2023-07-20T14:26:57;100679.69;;;28.30;30.03
75998;BME280;64685;48.762;44.822;2023-07-20T14:32:00;100688.63;;;28.16;30.62
75998;BME280;64685;48.762;44.822;2023-07-20T14:37:03;100679.53;;;28.17;29.99
75998;BME280;64685;48.762;44.822;2023-07-20T14:42:06;100682.22;;;28.28;30.09
75998;BME280;64685;48.762;44.822;2023-07-20T14:47:09;100674.09;;;28.23;30.72
75998;BME280;64685;48.762;44.822;2023-07-20T14:52:16;100684.84;;;28.19;31.34
75998;BME280;64685;48.762;44.822;2023-07-20T14:57:20;100671.00;;;28.14;32.41
75998;BME280;64685;48.762;44.822;2023-07-20T15:02:25;100669.41;;;28.13;32.34
75998;BME280;64685;48.762;44.822;2023-07-20T15:07:28;100667.63;;;27.99;32.23
75998;BME280;64685;48.762;44.822;2023-07-20T15:12:31;100676.84;;;27.91;32.20
75998;BME280;64685;48.762;44.822;2023-07-20T15:17:34;100679.50;;;27.82;32.30
75998;BME280;64685;48.762;44.822;2023-07-20T15:22:37;100667.28;;;27.78;32.37
75998;BME280;64685;48.762;44.822;2023-07-20T15:27:43;100677.09;;;27.77;32.21
75998;BME280;64685;48.762;44.822;2023-07-20T15:32:51;100676.28;;;27.76;31.95
75998;BME280;64685;48.762;44.822;2023-07-20T15:37:57;100674.06;;;27.64;32.46
75998;BME280;64685;48.762;44.822;2023-07-20T15:43:01;100679.88;;;27.61;33.14
75998;BME280;64685;48.762;44.822;2023-07-20T15:48:21;100676.69;;;27.55;33.20
75998;BME280;64685;48.762;44.822;2023-07-20T15:53:24;100670.34;;;27.44;33.53
75998;BME280;64685;48.762;44.822;2023-07-20T15:58:27;100675.59;;;27.26;33.88
75998;BME280;64685;48.762;44.822;2023-07-20T16:03:29;100677.28;;;27.24;34.07
75998;BME280;64685;48.762;44.822;2023-07-20T16:08:36;100684.03;;;27.10;33.79
75998;BME280;64685;48.762;44.822;2023-07-20T16:13:39;100678.13;;;26.98;34.54
75998;BME280;64685;48.762;44.822;2023-07-20T16:18:41;100685.28;;;26.86;34.84
75998;BME280;64685;48.762;44.822;2023-07-20T16:23:44;100683.88;;;26.71;35.11
75998;BME280;64685;48.762;44.822;2023-07-20T16:28:46;100688.22;;;26.56;34.96
75998;BME280;64685;48.762;44.822;2023-07-20T16:33:49;100672.13;;;26.36;35.56
75998;BME280;64685;48.762;44.822;2023-07-20T16:38:52;100687.97;;;26.14;35.95
75998;BME280;64685;48.762;44.822;2023-07-20T16:44:14;100690.72;;;25.91;36.92
75998;BME280;64685;48.762;44.822;2023-07-20T16:49:17;100686.75;;;25.78;36.81
75998;BME280;64685;48.762;44.822;2023-07-20T16:54:19;100691.81;;;25.63;37.39
75998;BME280;64685;48.762;44.822;2023-07-20T16:59:22;100696.50;;;25.47;37.79
75998;BME280;64685;48.762;44.822;2023-07-20T17:04:25;100699.94;;;25.31;38.19
75998;BME280;64685;48.762;44.822;2023-07-20T17:09:29;100702.41;;;25.22;38.42
75998;BME280;64685;48.762;44.822;2023-07-20T17:14:34;100713.09;;;25.15;38.44
75998;BME280;64685;48.762;44.822;2023-07-20T17:19:37;100718.50;;;25.02;39.05
75998;BME280;64685;48.762;44.822;2023-07-20T17:24:40;100731.31;;;24.87;39.53
75998;BME280;64685;48.762;44.822;2023-07-20T17:29:46;100740.34;;;24.79;39.17
75998;BME280;64685;48.762;44.822;2023-07-20T17:34:48;100744.44;;;24.74;39.42
75998;BME280;64685;48.762;44.822;2023-07-20T17:39:51;100749.00;;;24.65;39.22
75998;BME280;64685;48.762;44.822;2023-07-20T17:44:57;100750.66;;;24.59;39.68
75998;BME280;64685;48.762;44.822;2023-07-20T17:49:59;100757.63;;;24.51;39.73
75998;BME280;64685;48.762;44.822;2023-07-20T17:55:05;100758.91;;;24.36;40.14
75998;BME280;64685;48.762;44.822;2023-07-20T18:00:08;100758.09;;;24.32;40.29
75998;BME280;64685;48.762;44.822;2023-07-20T18:05:15;100754.50;;;24.24;40.27
75998;BME280;64685;48.762;44.822;2023-07-20T18:10:19;100761.44;;;24.16;40.76
75998;BME280;64685;48.762;44.822;2023-07-20T18:15:21;100761.41;;;24.20;40.62
75998;BME280;64685;48.762;44.822;2023-07-20T18:20:24;100763.47;;;24.19;40.25
75998;BME280;64685;48.762;44.822;2023-07-20T18:25:27;100766.75;;;24.18;40.14
75998;BME280;64685;48.762;44.822;2023-07-20T18:30:31;100764.69;;;24.18;40.19
75998;BME280;64685;48.762;44.822;2023-07-20T18:35:36;100777.38;;;24.10;40.46
75998;BME280;64685;48.762;44.822;2023-07-20T18:40:39;100770.47;;;24.01;40.56
75998;BME280;64685;48.762;44.822;2023-07-20T18:45:42;100786.38;;;23.95;41.27
75998;BME280;64685;48.762;44.822;2023-07-20T18:50:45;100777.41;;;23.86;41.68
75998;BME280;64685;48.762;44.822;2023-07-20T18:55:48;100792.50;;;23.90;41.50
75998;BME280;64685;48.762;44.822;2023-07-20T19:00:51;100790.84;;;23.99;41.53
75998;BME280;64685;48.762;44.822;2023-07-20T19:05:53;100781.47;;;23.99;41.41
75998;BME280;64685;48.762;44.822;2023-07-20T19:10:59;100785.19;;;23.89;41.41
75998;BME280;64685;48.762;44.822;2023-07-20T19:16:07;100792.09;;;23.74;42.14
75998;BME280;64685;48.762;44.822;2023-07-20T19:21:10;100790.06;;;23.71;42.31
75998;BME280;64685;48.762;44.822;2023-07-20T19:26:12;100791.69;;;23.65;43.04
75998;BME280;64685;48.762;44.822;2023-07-20T19:31:15;100795.78;;;23.57;43.22
75998;BME280;64685;48.762;44.822;2023-07-20T19:36:17;100791.31;;;23.49;43.47
75998;BME280;64685;48.762;44.822;2023-07-20T19:41:22;100801.09;;;23.44;43.55
75998;BME280;64685;48.762;44.822;2023-07-20T19:46:25;100790.09;;;23.43;43.24
75998;BME280;64685;48.762;44.822;2023-07-20T19:51:28;100790.91;;;23.40;43.37
75998;BME280;64685;48.762;44.822;2023-07-20T19:56:30;100785.63;;;23.35;43.32
75998;BME280;64685;48.762;44.822;2023-07-20T20:01:33;100785.22;;;23.29;43.37
75998;BME280;64685;48.762;44.822;2023-07-20T20:06:39;100799.03;;;23.24;43.31
75998;BME280;64685;48.762;44.822;2023-07-20T20:11:42;100799.03;;;23.24;43.46
75998;BME280;64685;48.762;44.822;2023-07-20T20:16:45;100801.91;;;23.20;43.54
75998;BME280;64685;48.762;44.822;2023-07-20T20:21:48;100808.00;;;23.19;43.19
75998;BME280;64685;48.762;44.822;2023-07-20T20:26:51;100804.75;;;23.17;43.04
75998;BME280;64685;48.762;44.822;2023-07-20T20:31:53;100805.94;;;23.16;42.72
75998;BME280;64685;48.762;44.822;2023-07-20T20:36:56;100792.94;;;23.18;42.60
75998;BME280;64685;48.762;44.822;2023-07-20T20:41:59;100803.53;;;23.21;42.83
75998;BME280;64685;48.762;44.822;2023-07-20T20:47:02;100812.50;;;23.23;42.74
75998;BME280;64685;48.762;44.822;2023-07-20T20:52:05;100816.16;;;23.24;42.73
75998;BME280;64685;48.762;44.822;2023-07-20T20:57:08;100821.44;;;23.25;42.32
75998;BME280;64685;48.762;44.822;2023-07-20T21:02:12;100825.09;;;23.26;42.14
75998;BME280;64685;48.762;44.822;2023-07-20T21:07:20;100821.84;;;23.27;42.05
75998;BME280;64685;48.762;44.822;2023-07-20T21:12:22;100827.16;;;23.22;42.12
75998;BME280;64685;48.762;44.822;2023-07-20T21:17:25;100813.69;;;23.19;41.89
75998;BME280;64685;48.762;44.822;2023-07-20T21:22:28;100814.06;;;23.10;41.88
75998;BME280;64685;48.762;44.822;2023-07-20T21:27:32;100816.91;;;23.03;42.12
75998;BME280;64685;48.762;44.822;2023-07-20T21:32:36;100818.09;;;22.92;42.69
75998;BME280;64685;48.762;44.822;2023-07-20T21:37:38;100807.91;;;22.77;42.84
75998;BME280;64685;48.762;44.822;2023-07-20T21:42:41;100825.38;;;22.68;43.32
75998;BME280;64685;48.762;44.822;2023-07-20T21:47:44;100817.22;;;22.60;43.76
75998;BME280;64685;48.762;44.822;2023-07-20T21:52:47;100822.06;;;22.56;43.82
75998;BME280;64685;48.762;44.822;2023-07-20T21:57:49;100818.81;;;22.54;44.15
75998;BME280;64685;48.762;44.822;2023-07-20T22:02:52;100821.66;;;22.50;44.08
75998;BME280;64685;48.762;44.822;2023-07-20T22:07:55;100820.78;;;22.43;44.28
75998;BME280;64685;48.762;44.822;2023-07-20T22:12:57;100826.44;;;22.36;44.71
75998;BME280;64685;48.762;44.822;2023-07-20T22:18:00;100841.84;;;22.28;44.98
75998;BME280;64685;48.762;44.822;2023-07-20T22:23:09;100832.44;;;22.24;45.01
75998;BME280;64685;48.762;44.822;2023-07-20T22:28:11;100816.59;;;22.23;45.08
75998;BME280;64685;48.762;44.822;2023-07-20T22:33:14;100828.00;;;22.30;44.73
75998;BME280;64685;48.762;44.822;2023-07-20T22:38:17;100822.75;;;22.32;44.38
75998;BME280;64685;48.762;44.822;2023-07-20T22:43:20;100823.97;;;22.31;44.23
75998;BME280;64685;48.762;44.822;2023-07-20T22:48:27;100820.75;;;22.39;44.08
75998;BME280;64685;48.762;44.822;2023-07-20T22:53:30;100809.06;;;22.55;43.54
75998;BME280;64685;48.762;44.822;2023-07-20T22:58:33;100809.91;;;22.73;43.18
75998;BME280;64685;48.762;44.822;2023-07-20T23:03:36;100806.69;;;22.85;42.85
75998;BME280;64685;48.762;44.822;2023-07-20T23:08:38;100806.28;;;22.83;42.50
75998;BME280;64685;48.762;44.822;2023-07-20T23:13:41;100807.50;;;22.82;42.91
75998;BME280;64685;48.762;44.822;2023-07-20T23:18:43;100811.97;;;22.79;42.50
75998;BME280;64685;48.762;44.822;2023-07-20T23:23:48;100816.00;;;22.75;42.51
75998;BME280;64685;48.762;44.822;2023-07-20T23:28:53;100813.16;;;22.75;42.14
75998;BME280;64685;48.762;44.822;2023-07-20T23:33:56;100814.38;;;22.70;42.21
75998;BME280;64685;48.762;44.822;2023-07-20T23:38:58;100802.97;;;22.67;42.61
75998;BME280;64685;48.762;44.822;2023-07-20T23:44:01;100819.25;;;22.63;42.39
75998;BME280;64685;48.762;44.822;2023-07-20T23:49:04;100813.53;;;22.56;42.25
75998;BME280;64685;48.762;44.822;2023-07-20T23:54:06;100808.59;;;22.49;41.72
75998;BME280;64685;48.762;44.822;2023-07-20T23:59:09;100811.03;;;22.44;41.61
